Flight Track Log - Related Links

Times and Time Zones

All times are in EDT time to prevent confusion due to time zone crossing. See the AWE1556 flight status page for this flight to view local times or setup timezone preferences in your user account.

Time Position Orientation Groundspeed Altitude Reporting Facility
EDT Latitude Longitude Course Direction KTS MPH feet Rate Location/Type
Fri 02:39:56 AM 33.4410 -112.0350 270° West 175 201 2,200  Level FlightAware ADS-B
Fri 02:40:24 AM 33.4420 -112.0610 273° West 178 205 3,000 1,350 Climbing FlightAware ADS-B
Fri 02:40:36 AM 33.4430 -112.0740 275° West 186 214 3,100 600 Climbing FlightAware ADS-B
Fri 02:41:04 AM 33.4450 -112.1040 275° West 205 236 3,400 692 Climbing FlightAware ADS-B
Fri 02:41:28 AM 33.4470 -112.1330 275° West 225 259 3,700 632 Climbing FlightAware ADS-B
Fri 02:42:01 AM 33.4540 -112.1760 281° West 259 298 4,000 682 Climbing FlightAware ADS-B
Fri 02:42:12 AM 33.4630 -112.1880 312° West 272 313 4,200 1,071 Climbing FlightAware ADS-B
Fri 02:42:29 AM 33.4820 -112.1990 334° Northwest 284 327 4,500 977 Climbing FlightAware ADS-B
Fri 02:42:55 AM 33.5030 -112.1980 North 289 333 4,900 1,200 Climbing FlightAware ADS-B
Fri 02:43:04 AM 33.5150 -112.1910 26° Northeast 289 333 5,200 2,077 Climbing FlightAware ADS-B
Fri 02:43:21 AM 33.5310 -112.1710 46° Northeast 285 328 5,800 1,929 Climbing FlightAware ADS-B
Fri 02:43:32 AM 33.5350 -112.1590 68° East 283 326 6,100 1,610 Climbing FlightAware ADS-B
Fri 02:44:02 AM 33.5490 -112.1140 70° East 282 325 6,900 1,636 Climbing FlightAware ADS-B
Fri 02:44:27 AM 33.5610 -112.0750 70° East 288 331 7,600 1,625 Climbing FlightAware ADS-B
Fri 02:44:50 AM 33.5720 -112.0410 69° East 288 331 8,200 1,459 Climbing FlightAware ADS-B
Fri 02:45:04 AM 33.5780 -112.0220 69° East 289 333 8,500 1,515 Climbing FlightAware ADS-B
Fri 02:46:29 AM 33.6240 -111.8720 70° East 315 362 10,700 1,286 Climbing FlightAware ADS-B
Fri 02:47:10 AM 33.6460 -111.8010 70° East 339 390 11,200 767 Climbing FlightAware ADS-B
Fri 02:47:55 AM 33.6710 -111.7190 70° East 362 417 11,800 750 Climbing FlightAware ADS-B
Fri 02:48:38 AM 33.6890 -111.6330 76° East 383 441 12,300 1,084 Climbing FlightAware ADS-B
Fri 02:49:18 AM 33.7060 -111.5490 76° East 386 444 13,300 1,325 Climbing FlightAware ADS-B
Fri 02:49:55 AM 33.7220 -111.4710 76° East 395 455 14,000 1,263 Climbing FlightAware ADS-B
Fri 02:50:34 AM 33.7380 -111.3880 77° East 397 457 14,900 1,373 Climbing FlightAware ADS-B
Fri 02:51:18 AM 33.7570 -111.2910 77° East 402 463 15,900 1,357 Climbing FlightAware ADS-B
Fri 02:51:58 AM 33.7730 -111.2070 77° East 405 466 16,800 1,185 Climbing FlightAware ADS-B
Fri 02:52:39 AM 33.7920 -111.1140 76° East 410 472 17,500 867 Climbing FlightAware ADS-B
Fri 02:53:21 AM 33.8030 -111.0560 77° East 414 476 18,000 918 Climbing FlightAware ADS-B
Fri 02:54:04 AM 33.8240 -110.9440 77° East 423 487 18,800 1,308 Climbing FlightAware ADS-B
Fri 02:54:39 AM 33.8400 -110.8650 76° East 421 484 19,700 1,231 Climbing FlightAware ADS-B
Fri 02:55:22 AM 33.8560 -110.7820 77° East 422 486 20,400 1,590 Climbing FlightAware ADS-B
Fri 02:56:02 AM 33.8760 -110.6760 77° East 407 468 21,900 1,920 Climbing FlightAware ADS-B
Fri 02:56:37 AM 33.8890 -110.6050 78° East 395 455 22,800 1,154 Climbing FlightAware ADS-B
Fri 02:57:20 AM 33.9050 -110.5210 77° East 398 458 23,400 439 Climbing FlightAware ADS-B
Fri 02:57:59 AM 33.9190 -110.4490 77° East 398 458 23,400 462 Level FlightAware ADS-B
Fri 02:58:38 AM 33.9410 -110.3290 78° East 421 484 24,000 607 Climbing FlightAware ADS-B
Fri 02:59:28 AM 33.9540 -110.2180 82° East 431 496 24,300 246 Climbing FlightAware ADS-B
Fri 03:00:40 AM 33.9720 -110.0570 82° East 439 505 24,500 109 Climbing FlightAware ADS-B
Fri 03:01:18 AM 33.9810 -109.9790 82° East 439 505 24,500 474 Level FlightAware ADS-B
Fri 03:01:56 AM 33.9780 -109.8530 92° East 459 528 25,100 791 Climbing FlightAware ADS-B
Fri 03:02:49 AM 33.9940 -109.7190 82° East 463 533 25,700 471 Climbing FlightAware ADS-B
Fri 03:03:38 AM 34.0140 -109.6170 77° East 466 536 25,900 141 Climbing FlightAware ADS-B
Fri 03:04:14 AM 34.0280 -109.5400 78° East 466 536 25,900  Level FlightAware ADS-B
Fri 03:05:03 AM 34.0490 -109.4340 77° East 466 536 25,900  Level FlightAware ADS-B
Fri 03:05:42 AM 34.0650 -109.3500 77° East 466 536 25,900  Level FlightAware ADS-B
Fri 03:06:31 AM 34.0850 -109.2440 77° East 466 536 25,900  Level FlightAware ADS-B
Fri 03:07:07 AM 34.1000 -109.1670 77° East 466 536 25,900 2,269 Level FlightAware ADS-B
Fri 03:08:30 AM 34.2417 -108.8908 77° East 448 516 30,400 689 Climbing Albuquerque Center
Fri 03:14:31 AM 34.4210 -107.9620 77° East 463 533 31,000 90 Climbing FlightAware ADS-B
Fri 03:15:09 AM 34.4350 -107.8800 78° East 463 533 31,000  Level FlightAware ADS-B
Fri 03:15:58 AM 34.4540 -107.7740 78° East 463 533 31,000  Level FlightAware ADS-B
Fri 03:16:35 AM 34.4680 -107.6940 78° East 463 533 31,000  Level FlightAware ADS-B
Fri 03:17:29 AM 34.4940 -107.5120 80° East 461 531 31,000  Level FlightAware ADS-B
Fri 03:18:04 AM 34.5060 -107.4320 80° East 462 532 31,000  Level FlightAware ADS-B
Fri 03:18:52 AM 34.5270 -107.3030 79° East 460 529 31,000  Level FlightAware ADS-B
Fri 03:19:24 AM 34.5380 -107.2330 79° East 460 529 31,000  Level FlightAware ADS-B
Fri 03:20:13 AM 34.5600 -107.0950 79° East 456 525 31,000  Level FlightAware ADS-B
Fri 03:20:53 AM 34.5760 -106.9940 79° East 453 521 31,000 71 Level FlightAware ADS-B
Fri 03:21:37 AM 34.5920 -106.8850 80° East 453 521 31,100 286 Climbing FlightAware ADS-B
Fri 03:22:17 AM 34.6080 -106.7880 79° East 457 526 31,400 692 Climbing FlightAware ADS-B
Fri 03:22:55 AM 34.6230 -106.6880 80° East 457 526 32,000 892 Climbing FlightAware ADS-B
Fri 03:23:31 AM 34.6370 -106.5970 79° East 456 525 32,500 714 Climbing FlightAware ADS-B
Fri 03:24:19 AM 34.6550 -106.4770 80° East 456 525 33,000 333 Climbing FlightAware ADS-B
Fri 03:25:01 AM 34.6710 -106.3710 80° East 450 518 33,000  Level FlightAware ADS-B
Fri 03:25:43 AM 34.6860 -106.2680 80° East 453 521 33,000  Level FlightAware ADS-B
Fri 03:26:27 AM 34.7030 -106.1550 80° East 455 524 33,000  Level FlightAware ADS-B
Fri 03:27:07 AM 34.7180 -106.0540 80° East 457 526 33,000  Level FlightAware ADS-B
Fri 03:27:47 AM 34.7330 -105.9550 80° East 457 526 33,000  Level FlightAware ADS-B
Fri 03:28:31 AM 34.7490 -105.8440 80° East 458 527 33,000  Level FlightAware ADS-B
Fri 03:29:13 AM 34.7640 -105.7370 80° East 458 527 33,000 71 Level FlightAware ADS-B
Fri 03:29:55 AM 34.7800 -105.6290 80° East 458 527 33,100 71 Climbing FlightAware ADS-B
Fri 03:30:37 AM 34.7930 -105.5360 80° East 457 526 33,100  Level FlightAware ADS-B
Fri 03:31:13 AM 34.8040 -105.4580 80° East 457 526 33,100  Level FlightAware ADS-B
Fri 03:31:50 AM 34.8160 -105.3780 80° East 457 526 33,100  Level FlightAware ADS-B
Fri 03:32:37 AM 34.8310 -105.2770 80° East 457 526 33,100  Level FlightAware ADS-B
Fri 03:33:12 AM 34.8420 -105.2020 80° East 457 526 33,100  Level FlightAware ADS-B
Fri 03:33:48 AM 34.8530 -105.1240 80° East 457 526 33,100  Level FlightAware ADS-B
Fri 03:34:37 AM 34.8680 -105.0180 80° East 457 526 33,100  Level FlightAware ADS-B
Fri 03:35:13 AM 34.8790 -104.9410 80° East 457 526 33,100  Level FlightAware ADS-B
Fri 03:36:02 AM 34.8950 -104.8350 80° East 457 526 33,100  Level FlightAware ADS-B
Fri 03:36:38 AM 34.9060 -104.7570 80° East 457 526 33,100  Level FlightAware ADS-B
Fri 03:37:38 AM 34.9250 -104.6280 80° East 457 526 33,100  Level FlightAware ADS-B
Fri 03:38:14 AM 34.9360 -104.5500 80° East 457 526 33,100  Level FlightAware ADS-B
Fri 03:38:50 AM 34.9470 -104.4720 80° East 457 526 33,100  Level FlightAware ADS-B
Fri 03:39:36 AM 34.9610 -104.3730 80° East 457 526 33,100  Level FlightAware ADS-B
Fri 03:40:35 AM 34.9944 -104.0539 80° East 443 510 33,100  Level Albuquerque Center
Fri 03:41:35 AM 35.0142 -103.9072 81° East 440 506 33,100 -50 Level Albuquerque Center
Fri 03:42:36 AM 35.0336 -103.7619 81° East 436 502 33,000 -50 Descending Albuquerque Center
Fri 03:43:36 AM 35.0522 -103.6156 81° East 436 502 33,000  Level Albuquerque Center
Fri 03:44:36 AM 35.0708 -103.4714 81° East 431 496 33,000  Level Albuquerque Center
Fri 03:45:36 AM 35.0878 -103.3244 82° East 433 498 33,000  Level Albuquerque Center
Fri 03:46:36 AM 35.1067 -103.1775 81° East 435 501 33,000 50 Level Albuquerque Center
Fri 03:47:36 AM 35.1250 -103.0303 81° East 436 502 33,100 50 Climbing Albuquerque Center
Fri 03:48:37 AM 35.1422 -102.8858 82° East 435 501 33,100 -50 Level Albuquerque Center
Fri 03:49:37 AM 35.1589 -102.7406 82° East 433 498 33,000 -50 Descending Albuquerque Center
Fri 03:50:37 AM 35.1764 -102.5969 81° East 430 495 33,000  Level Albuquerque Center
Fri 03:51:37 AM 35.1928 -102.4544 82° East 426 490 33,000  Level Albuquerque Center
Fri 03:52:37 AM 35.2094 -102.3117 82° East 426 490 33,000  Level Albuquerque Center
Fri 03:53:37 AM 35.2253 -102.1686 82° East 425 489 33,000  Level Albuquerque Center
Fri 03:54:37 AM 35.2422 -102.0258 82° East 425 489 33,000  Level Albuquerque Center
Fri 03:55:38 AM 35.2572 -101.8944 82° East 428 493 33,000  Level Albuquerque Center
Fri 03:56:38 AM 35.2750 -101.7494 81° East 428 493 33,000  Level Albuquerque Center
Fri 03:57:38 AM 35.2914 -101.5975 82° East 427 491 33,000  Level Albuquerque Center
Fri 03:58:39 AM 35.3044 -101.4539 84° East 426 490 33,000  Level Albuquerque Center
Fri 03:59:39 AM 35.3206 -101.3089 82° East 427 491 33,000  Level Albuquerque Center
Fri 04:00:39 AM 35.3344 -101.1772 83° East 430 495 33,000  Level Albuquerque Center
Fri 04:01:39 AM 35.3503 -101.0306 82° East 434 499 33,000 50 Level Albuquerque Center
Fri 04:02:40 AM 35.3658 -100.8808 83° East 441 507 33,100 50 Climbing Albuquerque Center
Fri 04:03:40 AM 35.3808 -100.7303 83° East 445 512 33,100 -50 Level Albuquerque Center
Fri 04:04:40 AM 35.3981 -100.5633 83° East 448 516 33,000 -50 Descending Albuquerque Center
Fri 04:05:40 AM 35.4142 -100.4111 83° East 450 518 33,000  Level Albuquerque Center
Fri 04:06:40 AM 35.4308 -100.2578 82° East 452 520 33,000 50 Level Albuquerque Center
Fri 04:07:41 AM 35.4428 -100.1017 85° East 456 525 33,100  Climbing Albuquerque Center
Fri 04:08:41 AM 35.4581 -99.9472 83° East 457 526 33,000 -50 Descending Albuquerque Center
Fri 04:09:41 AM 35.4725 -99.7961 83° East 451 519 33,000  Level Albuquerque Center
Fri 04:10:41 AM 35.4853 -99.6464 84° East 445 512 33,000  Level Albuquerque Center
Fri 04:11:46 AM 35.4994 -99.4892 84° East 443 510 33,000  Level Fort Worth Center
Fri 04:12:46 AM 35.5144 -99.3414 83° East 443 510 33,000  Level Fort Worth Center
Fri 04:13:46 AM 35.5250 -99.1886 85° East 443 510 33,000  Level Fort Worth Center
Fri 04:19:35 AM 35.6030 -98.2920 85° East 442 509 33,000  Level FlightAware ADS-B
Fri 04:20:21 AM 35.6120 -98.1760 85° East 444 511 33,000  Level FlightAware ADS-B
Fri 04:20:53 AM 35.6190 -98.0970 84° East 447 514 33,000 79 Level FlightAware ADS-B
Fri 04:21:37 AM 35.6280 -97.9850 84° East 448 516 33,100 61 Climbing FlightAware ADS-B
Fri 04:22:31 AM 35.6370 -97.8640 85° East 447 514 33,100  Level FlightAware ADS-B
Fri 04:23:13 AM 35.6460 -97.7430 85° East 441 507 33,100 -69 Level FlightAware ADS-B
Fri 04:23:58 AM 35.6550 -97.6310 84° East 437 503 33,000 -71 Descending FlightAware ADS-B
Fri 04:24:37 AM 35.6620 -97.5350 85° East 436 502 33,000  Level FlightAware ADS-B
Fri 04:25:18 AM 35.6700 -97.4340 84° East 435 501 33,000  Level FlightAware ADS-B
Fri 04:26:19 AM 35.6810 -97.2930 84° East 435 501 33,000  Level FlightAware ADS-B
Fri 04:26:55 AM 35.6870 -97.2170 84° East 435 501 33,000  Level FlightAware ADS-B
Fri 04:27:49 AM 35.6960 -97.0620 86° East 435 501 33,000  Level FlightAware ADS-B
Fri 04:28:34 AM 35.7040 -96.9530 85° East 435 501 33,000  Level FlightAware ADS-B
Fri 04:29:19 AM 35.7120 -96.8380 85° East 437 503 33,000  Level FlightAware ADS-B
Fri 04:29:57 AM 35.7180 -96.7440 85° East 438 504 33,000  Level FlightAware ADS-B
Fri 04:30:43 AM 35.7260 -96.6300 85° East 439 505 33,000  Level FlightAware ADS-B
Fri 04:31:23 AM 35.7330 -96.5300 85° East 440 506 33,000 75 Level FlightAware ADS-B
Fri 04:32:03 AM 35.7390 -96.4290 86° East 440 506 33,100  Climbing FlightAware ADS-B
Fri 04:32:37 AM 35.7450 -96.3450 85° East 440 506 33,000 -81 Descending FlightAware ADS-B
Fri 04:33:17 AM 35.7510 -96.2450 86° East 439 505 33,000  Level FlightAware ADS-B
Fri 04:33:59 AM 35.7580 -96.1420 85° East 438 504 33,000  Level FlightAware ADS-B
Fri 04:34:43 AM 35.7650 -96.0350 85° East 437 503 33,000  Level FlightAware ADS-B
Fri 04:35:23 AM 35.7710 -95.9320 86° East 436 502 33,000  Level FlightAware ADS-B
Fri 04:36:02 AM 35.7770 -95.8370 86° East 436 502 33,000  Level FlightAware ADS-B
Fri 04:36:38 AM 35.7820 -95.7470 86° East 438 504 33,000  Level FlightAware ADS-B
Fri 04:37:22 AM 35.7890 -95.6390 85° East 439 505 33,000  Level FlightAware ADS-B
Fri 04:38:03 AM 35.7950 -95.5370 86° East 440 506 33,000  Level FlightAware ADS-B
Fri 04:38:54 AM 35.8020 -95.4080 86° East 440 506 33,000  Level FlightAware ADS-B
Fri 04:39:34 AM 35.8080 -95.3090 86° East 440 506 33,000  Level FlightAware ADS-B
Fri 04:40:17 AM 35.8130 -95.2050 87° East 439 505 33,000  Level FlightAware ADS-B
Fri 04:40:59 AM 35.8190 -95.0970 86° East 438 504 33,000  Level FlightAware ADS-B
Fri 04:41:37 AM 35.8240 -95.0090 86° East 437 503 33,000  Level FlightAware ADS-B
Fri 04:42:24 AM 35.8300 -94.8890 86° East 439 505 33,000  Level FlightAware ADS-B
Fri 04:42:59 AM 35.8350 -94.7990 86° East 441 507 33,000  Level FlightAware ADS-B
Fri 04:43:39 AM 35.8400 -94.6980 86° East 445 512 33,000  Level FlightAware ADS-B
Fri 04:44:19 AM 35.8460 -94.5960 86° East 449 517 33,000  Level FlightAware ADS-B
Fri 04:45:24 AM 35.8540 -94.4310 87° East 455 524 33,000 54 Level FlightAware ADS-B
Fri 04:46:11 AM 35.8600 -94.3040 87° East 459 528 33,100 67 Climbing FlightAware ADS-B
Fri 04:46:53 AM 35.8650 -94.1960 87° East 458 527 33,100  Level FlightAware ADS-B
Fri 04:47:34 AM 35.8700 -94.0890 87° East 458 527 33,100 -73 Level FlightAware ADS-B
Fri 04:48:15 AM 35.8750 -93.9800 87° East 457 526 33,000 -71 Descending FlightAware ADS-B
Fri 04:48:58 AM 35.8800 -93.8700 87° East 456 525 33,000  Level FlightAware ADS-B
Fri 04:49:39 AM 35.8840 -93.7620 87° East 456 525 33,000  Level FlightAware ADS-B
Fri 04:50:23 AM 35.8890 -93.6470 87° East 458 527 33,000  Level FlightAware ADS-B
Fri 04:51:01 AM 35.8930 -93.5490 87° East 460 529 33,000  Level FlightAware ADS-B
Fri 04:51:47 AM 35.8980 -93.4300 87° East 461 531 33,000 70 Level FlightAware ADS-B
Fri 04:52:27 AM 35.9020 -93.3250 87° East 463 533 33,100  Climbing FlightAware ADS-B
Fri 04:53:05 AM 35.9060 -93.2220 87° East 463 533 33,000 -70 Descending FlightAware ADS-B
Fri 04:53:53 AM 35.9110 -93.0960 87° East 463 533 33,000  Level FlightAware ADS-B
Fri 04:54:33 AM 35.9150 -92.9900 87° East 464 534 33,000  Level FlightAware ADS-B
Fri 04:55:15 AM 35.9190 -92.8790 87° East 465 535 33,000  Level FlightAware ADS-B
Fri 04:55:57 AM 35.9230 -92.7670 87° East 465 535 33,000  Level FlightAware ADS-B
Fri 04:56:40 AM 35.9270 -92.6560 87° East 464 534 33,000  Level FlightAware ADS-B
Fri 04:57:21 AM 35.9300 -92.5460 88° East 463 533 33,000  Level FlightAware ADS-B
Fri 04:58:04 AM 35.9340 -92.4330 87° East 463 533 33,000  Level FlightAware ADS-B
Fri 04:58:46 AM 35.9380 -92.3230 87° East 463 533 33,000  Level FlightAware ADS-B
Fri 04:59:28 AM 35.9410 -92.2100 88° East 462 532 33,000  Level FlightAware ADS-B
Fri 05:00:22 AM 35.9450 -92.0720 88° East 457 526 33,000  Level FlightAware ADS-B
Fri 05:01:07 AM 35.9480 -91.9550 88° East 460 529 33,000  Level FlightAware ADS-B
Fri 05:01:48 AM 35.9510 -91.8450 88° East 462 532 33,000  Level FlightAware ADS-B
Fri 05:02:31 AM 35.9540 -91.7320 88° East 462 532 33,000  Level FlightAware ADS-B
Fri 05:03:11 AM 35.9570 -91.6250 88° East 462 532 33,000  Level FlightAware ADS-B
Fri 05:03:55 AM 35.9600 -91.5100 88° East 461 531 33,000  Level FlightAware ADS-B
Fri 05:04:33 AM 35.9620 -91.4100 89° East 461 531 33,000  Level FlightAware ADS-B
Fri 05:05:19 AM 35.9650 -91.2900 88° East 460 529 33,000  Level FlightAware ADS-B
Fri 05:06:01 AM 35.9680 -91.1920 88° East 460 529 33,000  Level FlightAware ADS-B
Fri 05:06:37 AM 35.9700 -91.1120 88° East 460 529 33,000  Level FlightAware ADS-B
Fri 05:07:26 AM 35.9730 -91.0020 88° East 460 529 33,000  Level FlightAware ADS-B
Fri 05:08:02 AM 35.9740 -90.8780 89° East 458 527 33,000  Level FlightAware ADS-B
Fri 05:08:38 AM 35.9770 -90.7980 87° East 458 527 33,000  Level FlightAware ADS-B
Fri 05:09:26 AM 35.9800 -90.6910 88° East 458 527 33,000  Level FlightAware ADS-B
Fri 05:10:03 AM 35.9820 -90.6090 88° East 458 527 33,000  Level FlightAware ADS-B
Fri 05:11:09 AM 35.9820 -90.3840 90° East 467 537 33,000  Level FlightAware ADS-B
Fri 05:11:50 AM 35.9840 -90.2910 88° East 467 537 33,000  Level FlightAware ADS-B
Fri 05:12:26 AM 35.9850 -90.2090 89° East 467 537 33,000  Level FlightAware ADS-B
Fri 05:13:13 AM 35.9870 -90.0380 89° East 467 537 33,000  Level FlightAware ADS-B
Fri 05:13:50 AM 35.9880 -89.9540 89° East 467 537 33,000  Level FlightAware ADS-B
Fri 05:14:38 AM 35.9900 -89.8450 89° East 467 537 33,000  Level FlightAware ADS-B
Fri 05:15:29 AM 35.9910 -89.7290 89° East 467 537 33,000  Level FlightAware ADS-B
Fri 05:16:05 AM 35.9930 -89.6470 88° East 467 537 33,000  Level FlightAware ADS-B
Fri 05:16:54 AM 35.9940 -89.5360 89° East 467 537 33,000  Level FlightAware ADS-B
Fri 05:17:30 AM 35.9950 -89.4550 89° East 467 537 33,000  Level FlightAware ADS-B
Fri 05:18:06 AM 35.9960 -89.3730 89° East 467 537 33,000  Level FlightAware ADS-B
Fri 05:18:42 AM 35.9980 -89.2910 88° East 467 537 33,000  Level FlightAware ADS-B
Fri 05:19:30 AM 35.9990 -89.1820 89° East 467 537 33,000  Level FlightAware ADS-B
Fri 05:20:06 AM 36.0000 -89.1000 89° East 467 537 33,000  Level FlightAware ADS-B
Fri 05:20:55 AM 36.0020 -88.9890 89° East 467 537 33,000  Level FlightAware ADS-B
Fri 05:21:31 AM 36.0030 -88.9080 89° East 467 537 33,000  Level FlightAware ADS-B
Fri 05:22:19 AM 36.0040 -88.7990 89° East 467 537 33,000  Level FlightAware ADS-B
Fri 05:22:55 AM 36.0060 -88.7170 88° East 467 537 33,000  Level FlightAware ADS-B
Fri 05:24:19 AM 35.9960 -88.2860 92° East 460 529 33,000  Level FlightAware ADS-B
Fri 05:24:51 AM 35.9950 -88.2040 91° East 460 529 33,000  Level FlightAware ADS-B
Fri 05:25:35 AM 35.9950 -88.0880 90° East 459 528 33,000  Level FlightAware ADS-B
Fri 05:26:19 AM 35.9940 -87.9730 91° East 459 528 33,000  Level FlightAware ADS-B
Fri 05:26:51 AM 35.9940 -87.8900 90° East 458 527 33,000  Level FlightAware ADS-B
Fri 05:27:35 AM 35.9930 -87.7760 91° East 458 527 33,000  Level FlightAware ADS-B
Fri 05:28:15 AM 35.9930 -87.6690 90° East 458 527 33,000  Level FlightAware ADS-B
Fri 05:28:59 AM 35.9920 -87.5540 91° East 458 527 33,000  Level FlightAware ADS-B
Fri 05:29:37 AM 35.9910 -87.4550 91° East 457 526 33,000 73 Level FlightAware ADS-B
Fri 05:30:21 AM 35.9900 -87.3410 91° East 456 525 33,100 79 Climbing FlightAware ADS-B
Fri 05:30:53 AM 35.9890 -87.2570 91° East 454 522 33,100 -94 Level FlightAware ADS-B
Fri 05:31:25 AM 35.9877 -87.1742 91° East 452 520 33,000 -92 Descending FlightAware ADS-B
Fri 05:31:58 AM 35.9867 -87.0897 91° East 452 520 33,000  Level FlightAware ADS-B
Fri 05:32:29 AM 35.9857 -87.0094 91° East 452 520 33,000  Level FlightAware ADS-B
Fri 05:33:00 AM 35.9846 -86.9302 91° East 454 522 33,000  Level FlightAware ADS-B
Fri 05:33:30 AM 35.9835 -86.8522 91° East 456 525 33,000  Level FlightAware ADS-B
Fri 05:34:00 AM 35.9824 -86.7729 91° East 458 527 33,000  Level FlightAware ADS-B
Fri 05:34:33 AM 35.9810 -86.6857 91° East 462 532 33,000  Level FlightAware ADS-B
Fri 05:35:04 AM 35.9797 -86.6050 91° East 464 534 33,000 98 Level FlightAware ADS-B
Fri 05:35:34 AM 35.9785 -86.5244 91° East 465 535 33,100 85 Climbing FlightAware ADS-B
Fri 05:36:15 AM 35.9770 -86.4180 91° East 463 533 33,100  Level FlightAware ADS-B
Fri 05:36:52 AM 35.9747 -86.3186 92° East 462 532 33,100  Level FlightAware ADS-B
Fri 05:37:23 AM 35.9732 -86.2372 91° East 459 528 33,100 -95 Level FlightAware ADS-B
Fri 05:37:55 AM 35.9716 -86.1539 91° East 456 525 33,000 -94 Descending FlightAware ADS-B
Fri 05:38:27 AM 35.9698 -86.0719 92° East 454 522 33,000  Level FlightAware ADS-B
Fri 05:38:58 AM 35.9682 -85.9911 91° East 454 522 33,000  Level FlightAware ADS-B
Fri 05:39:28 AM 35.9665 -85.9128 92° East 455 524 33,000  Level FlightAware ADS-B
Fri 05:40:30 AM 35.9627 -85.7507 92° East 457 526 33,000  Level FlightAware ADS-B
Fri 05:41:01 AM 35.9609 -85.6718 92° East 462 532 33,000  Level FlightAware ADS-B
Fri 05:41:33 AM 35.9588 -85.5854 92° East 464 534 33,000  Level FlightAware ADS-B
Fri 05:42:03 AM 35.9568 -85.5057 92° East 465 535 33,000 98 Level FlightAware ADS-B
Fri 05:42:34 AM 35.9547 -85.4239 92° East 466 536 33,100  Climbing FlightAware ADS-B
Fri 05:43:05 AM 35.9525 -85.3424 92° East 467 537 33,000 -98 Descending FlightAware ADS-B
Fri 05:43:35 AM 35.9503 -85.2619 92° East 468 539 33,000  Level FlightAware ADS-B
Fri 05:44:05 AM 35.9481 -85.1811 92° East 468 539 33,000  Level FlightAware ADS-B
Fri 05:44:45 AM 35.9450 -85.0746 92° East 468 539 33,000  Level FlightAware ADS-B
Fri 05:45:16 AM 35.9427 -84.9921 92° East 468 539 33,000  Level FlightAware ADS-B
Fri 05:45:46 AM 35.9402 -84.9116 92° East 468 539 33,000  Level FlightAware ADS-B
Fri 05:46:18 AM 35.9377 -84.8287 92° East 467 537 33,000  Level FlightAware ADS-B
Fri 05:46:48 AM 35.9352 -84.7476 92° East 466 536 33,000 100 Level FlightAware ADS-B
Fri 05:47:18 AM 35.9327 -84.6674 92° East 463 533 33,100 98 Climbing FlightAware ADS-B
Fri 05:47:49 AM 35.9301 -84.5859 92° East 460 529 33,100 -97 Level FlightAware ADS-B
Fri 05:48:20 AM 35.9274 -84.5065 92° East 458 527 33,000 -97 Descending FlightAware ADS-B
Fri 05:48:51 AM 35.9246 -84.4248 92° East 456 525 33,000  Level FlightAware ADS-B
Fri 05:49:21 AM 35.9218 -84.3467 93° East 454 522 33,000  Level FlightAware ADS-B
Fri 05:49:52 AM 35.9190 -84.2675 92° East 453 521 33,000  Level FlightAware ADS-B
Fri 05:50:24 AM 35.9160 -84.1842 93° East 452 520 33,000  Level FlightAware ADS-B
Fri 05:50:56 AM 35.9130 -84.1029 93° East 452 520 33,000  Level FlightAware ADS-B
Fri 05:51:27 AM 35.9100 -84.0238 93° East 453 521 33,000  Level FlightAware ADS-B
Fri 05:51:57 AM 35.9071 -83.9459 93° East 454 522 33,000 -207 Level FlightAware ADS-B
Fri 05:52:25 AM 35.9043 -83.8730 93° East 459 528 32,800 -915 Descending FlightAware ADS-B
Fri 05:52:56 AM 35.9030 -83.7920 91° East 461 531 32,100 -1,395 Descending FlightAware ADS-B
Fri 05:53:08 AM 35.9039 -83.7584 88° East 465 535 31,800 -1,565 Descending FlightAware ADS-B
Fri 05:53:19 AM 35.9074 -83.7297 81° East 463 533 31,500 -1,021 Descending FlightAware ADS-B
Fri 05:53:55 AM 35.9296 -83.6412 73° East 446 513 31,000 -971 Descending FlightAware ADS-B
Fri 05:54:27 AM 35.9496 -83.5663 72° East 434 499 30,400 -1,048 Descending FlightAware ADS-B
Fri 05:54:58 AM 35.9693 -83.4926 72° East 423 487 29,900 -968 Descending FlightAware ADS-B
Fri 05:55:29 AM 35.9878 -83.4237 72° East 416 479 29,400 -968 Descending FlightAware ADS-B
Fri 05:56:00 AM 36.0065 -83.3537 72° East 417 480 28,900 -1,059 Descending FlightAware ADS-B
Fri 05:56:20 AM 36.0203 -83.3084 69° East 420 483 28,500 -1,529 Descending FlightAware ADS-B
Fri 05:56:51 AM 36.0481 -83.2425 62° Northeast 417 480 27,600 -1,548 Descending FlightAware ADS-B
Fri 05:57:22 AM 36.0760 -83.1790 61° Northeast 405 466 26,900 -1,594 Descending FlightAware ADS-B
Fri 05:57:55 AM 36.1054 -83.1116 62° Northeast 403 464 25,900 -1,875 Descending FlightAware ADS-B
Fri 05:58:26 AM 36.1321 -83.0494 62° Northeast 400 460 24,900 -1,770 Descending FlightAware ADS-B
Fri 05:58:56 AM 36.1582 -82.9880 62° Northeast 395 455 24,100 -885 Descending FlightAware ADS-B
Fri 05:59:27 AM 36.1843 -82.9282 62° Northeast 393 452 24,000 -154 Descending FlightAware ADS-B
Fri 05:59:35 AM 36.1910 -82.9122 63° Northeast 391 450 24,000  Level FlightAware ADS-B
Fri 05:59:40 AM 36.1946 -82.9013 68° East 389 448 24,000  Level FlightAware ADS-B
Fri 05:59:48 AM 36.1990 -82.8840 73° East 385 443 24,000  Level FlightAware ADS-B
Fri 06:00:18 AM 36.2100 -82.8197 78° East 379 436 24,000 -600 Level FlightAware ADS-B
Fri 06:00:48 AM 36.2204 -82.7562 79° East 374 430 23,400 -1,377 Descending FlightAware ADS-B
Fri 06:01:19 AM 36.2314 -82.6938 78° East 367 422 22,600 -1,869 Descending FlightAware ADS-B
Fri 06:01:49 AM 36.2425 -82.6320 77° East 364 419 21,500 -2,045 Descending FlightAware ADS-B
Fri 06:02:03 AM 36.2474 -82.6034 78° East 361 415 21,100 -1,333 Descending FlightAware ADS-B
Fri 06:02:07 AM 36.2482 -82.5950 83° East 356 410 21,100 -500 Level FlightAware ADS-B
Fri 06:02:15 AM 36.2478 -82.5796 92° East 345 397 21,000 -545 Descending FlightAware ADS-B
Fri 06:02:18 AM 36.2469 -82.5733 100° East 341 392 21,000  Level FlightAware ADS-B
Fri 06:02:49 AM 36.2338 -82.5160 106° East 339 390 21,000  Level FlightAware ADS-B
Fri 06:03:19 AM 36.2202 -82.4594 107° East 340 391 21,000  Level FlightAware ADS-B
Fri 06:03:50 AM 36.2065 -82.4024 107° East 341 392 21,000  Level FlightAware ADS-B
Fri 06:04:08 AM 36.1979 -82.3674 107° East 340 391 21,000  Level FlightAware ADS-B
Fri 06:04:20 AM 36.1908 -82.3476 114° Southeast 331 381 21,000 -333 Level FlightAware ADS-B
Fri 06:04:26 AM 36.1858 -82.3383 124° Southeast 326 375 20,900 -857 Descending FlightAware ADS-B
Fri 06:04:34 AM 36.1781 -82.3270 130° Southeast 321 369 20,800 -1,263 Descending FlightAware ADS-B
Fri 06:05:04 AM 36.1481 -82.2866 133° Southeast 318 366 20,100 -1,500 Descending FlightAware ADS-B
Fri 06:05:34 AM 36.1176 -82.2458 133° Southeast 318 366 19,300 -1,475 Descending FlightAware ADS-B
Fri 06:06:05 AM 36.0873 -82.2054 133° Southeast 313 360 18,600 -1,574 Descending FlightAware ADS-B
Fri 06:06:35 AM 36.0577 -82.1660 133° Southeast 311 358 17,700 -1,800 Descending FlightAware ADS-B
Fri 06:07:05 AM 36.0275 -82.1259 133° Southeast 311 358 16,800 -1,594 Descending FlightAware ADS-B
Fri 06:07:39 AM 35.9952 -82.0831 133° Southeast 302 348 16,000 -1,308 Descending FlightAware ADS-B
Fri 06:08:23 AM 35.9580 -82.0340 133° Southeast 298 343 15,100 -1,273 Descending FlightAware ADS-B
Fri 06:08:45 AM 35.9327 -82.0005 133° Southeast 296 341 14,600 -1,132 Descending FlightAware ADS-B
Fri 06:09:16 AM 35.9038 -81.9623 133° Southeast 295 339 14,100 -985 Descending FlightAware ADS-B
Fri 06:09:52 AM 35.8708 -81.9187 133° Southeast 292 336 13,500 -429 Descending FlightAware ADS-B
Fri 06:11:22 AM 35.8040 -81.8300 133° Southeast 291 335 13,200 -697 Descending FlightAware ADS-B
Fri 06:13:53 AM 35.6340 -81.6080 133° Southeast 326 375 10,700 -802 Descending FlightAware ADS-B
Fri 06:14:29 AM 35.5970 -81.5600 133° Southeast 323 372 10,700 -88 Level FlightAware ADS-B
Fri 06:15:01 AM 35.5640 -81.5180 134° Southeast 297 342 10,600 -170 Descending FlightAware ADS-B
Fri 06:16:50 AM 35.5020 -81.3870 120° Southeast 294 338 10,300 -1,120 Descending FlightAware ADS-B
Fri 06:17:31 AM 35.5470 -81.2760 63° Northeast 269 310 7,800 -2,507 Descending FlightAware ADS-B
Fri 06:17:57 AM 35.5470 -81.2390 90° East 256 295 7,500 -340 Descending FlightAware ADS-B
Fri 06:18:24 AM 35.5480 -81.2050 88° East 256 295 7,500 -1,138 Level FlightAware ADS-B
Fri 06:18:55 AM 35.5480 -81.1580 90° East 242 278 6,400 -1,179 Descending FlightAware ADS-B
Fri 06:19:20 AM 35.5480 -81.1280 90° East 242 278 6,400 -427 Level FlightAware ADS-B
Fri 06:21:35 AM 35.5260 -80.9950 101° East 4,700 -477 Descending FlightAware ADS-B
Fri 06:21:45 AM 35.5160 -80.9930 171° South 4,700  Level FlightAware ADS-B
Fri 06:21:57 AM 35.5110 -80.9930 180° South 4,700  Level FlightAware ADS-B
Fri 06:22:27 AM 35.4890 -80.9900 174° South 4,700  Level FlightAware ADS-B
Fri 06:22:54 AM 35.4690 -80.9880 175° South 153 176 4,700 -167 Level FlightAware ADS-B
Fri 06:23:39 AM 35.4360 -80.9860 177° South 153 176 4,500 -560 Descending FlightAware ADS-B
Fri 06:24:09 AM 35.4120 -80.9830 174° South 149 171 4,000 -873 Descending FlightAware ADS-B
Fri 06:24:34 AM 35.3950 -80.9820 177° South 149 171 3,700 -764 Descending FlightAware ADS-B
Fri 06:25:04 AM 35.3750 -80.9800 175° South 150 173 3,300 -800 Descending FlightAware ADS-B
Fri 06:25:34 AM 35.3540 -80.9780 176° South 149 171 2,900 -764 Descending FlightAware ADS-B
Fri 06:25:59 AM 35.3370 -80.9770 177° South 147 169 2,600 -764 Descending FlightAware ADS-B
Fri 06:26:29 AM 35.3170 -80.9750 175° South 144 166 2,200 -764 Descending FlightAware ADS-B
Fri 06:26:54 AM 35.3010 -80.9740 177° South 144 166 1,900 -764 Descending FlightAware ADS-B
Fri 06:27:24 AM 35.2800 -80.9720 176° South 141 162 1,500 -800 Descending FlightAware ADS-B
Fri 06:27:39 AM 35.2700 -80.9710 175° South 141 162 1,300 -417 Descending FlightAware ADS-B
Fri 06:28:36 AM 35.2370 -80.9680 176° South 140 161 1,000 -316 Descending FlightAware ADS-B

Login

Don't have an account? Register now (free) for customized features, flight alerts, and more!